sensor_id;sensor_type;location;lat;lon;timestamp;pressure;altitude;pressure_sealevel;temperature;humidity
48156;BME280;35568;48.104;11.782;2023-03-14T00:02:12;93974.98;;;11.04;47.05
48156;BME280;35568;48.104;11.782;2023-03-14T00:04:39;93959.70;;;11.26;47.02
48156;BME280;35568;48.104;11.782;2023-03-14T00:07:06;93954.98;;;11.25;46.94
48156;BME280;35568;48.104;11.782;2023-03-14T00:09:33;93950.18;;;10.68;47.36
48156;BME280;35568;48.104;11.782;2023-03-14T00:11:59;93949.13;;;10.84;47.38
48156;BME280;35568;48.104;11.782;2023-03-14T00:14:26;93934.64;;;10.98;47.16
48156;BME280;35568;48.104;11.782;2023-03-14T00:16:53;93926.82;;;11.02;46.86
48156;BME280;35568;48.104;11.782;2023-03-14T00:19:20;93936.85;;;10.93;46.93
48156;BME280;35568;48.104;11.782;2023-03-14T00:21:48;93956.84;;;11.07;47.58
48156;BME280;35568;48.104;11.782;2023-03-14T00:24:14;93946.70;;;10.86;47.46
48156;BME280;35568;48.104;11.782;2023-03-14T00:26:41;93931.30;;;11.08;47.28
48156;BME280;35568;48.104;11.782;2023-03-14T00:29:08;93924.15;;;10.98;47.06
48156;BME280;35568;48.104;11.782;2023-03-14T00:31:35;93908.67;;;11.07;47.01
48156;BME280;35568;48.104;11.782;2023-03-14T00:34:02;93915.19;;;10.99;46.99
48156;BME280;35568;48.104;11.782;2023-03-14T00:36:28;93927.65;;;10.86;46.92
48156;BME280;35568;48.104;11.782;2023-03-14T00:38:55;93932.40;;;10.51;47.81
48156;BME280;35568;48.104;11.782;2023-03-14T00:41:23;93917.82;;;10.55;48.01
48156;BME280;35568;48.104;11.782;2023-03-14T00:43:51;93916.21;;;11.02;47.86
48156;BME280;35568;48.104;11.782;2023-03-14T00:46:17;93918.23;;;10.92;48.14
48156;BME280;35568;48.104;11.782;2023-03-14T00:48:45;93912.15;;;10.37;48.90
48156;BME280;35568;48.104;11.782;2023-03-14T00:51:12;93918.15;;;10.69;48.88
48156;BME280;35568;48.104;11.782;2023-03-14T00:53:40;93929.39;;;10.35;49.47
48156;BME280;35568;48.104;11.782;2023-03-14T00:56:09;93930.74;;;9.70;50.16
48156;BME280;35568;48.104;11.782;2023-03-14T00:58:37;93929.50;;;10.19;50.25
48156;BME280;35568;48.104;11.782;2023-03-14T01:01:08;93934.71;;;10.36;50.08
48156;BME280;35568;48.104;11.782;2023-03-14T01:03:36;93934.82;;;10.24;49.94
48156;BME280;35568;48.104;11.782;2023-03-14T01:06:08;93942.35;;;10.47;49.58
48156;BME280;35568;48.104;11.782;2023-03-14T01:08:35;93954.54;;;10.87;49.42
48156;BME280;35568;48.104;11.782;2023-03-14T01:11:06;93964.99;;;10.84;49.58
48156;BME280;35568;48.104;11.782;2023-03-14T01:13:33;93964.33;;;10.63;49.61
48156;BME280;35568;48.104;11.782;2023-03-14T01:16:02;93968.08;;;10.73;49.81
48156;BME280;35568;48.104;11.782;2023-03-14T01:18:29;93966.03;;;10.41;50.39
48156;BME280;35568;48.104;11.782;2023-03-14T01:20:57;93970.19;;;10.22;51.08
48156;BME280;35568;48.104;11.782;2023-03-14T01:23:24;93974.40;;;10.23;51.86
48156;BME280;35568;48.104;11.782;2023-03-14T01:25:51;93970.86;;;10.12;52.02
48156;BME280;35568;48.104;11.782;2023-03-14T01:28:18;93970.58;;;10.21;52.32
48156;BME280;35568;48.104;11.782;2023-03-14T01:30:45;93975.35;;;10.24;53.20
48156;BME280;35568;48.104;11.782;2023-03-14T01:33:12;93976.89;;;10.19;54.36
48156;BME280;35568;48.104;11.782;2023-03-14T01:35:38;93976.96;;;10.19;54.54
48156;BME280;35568;48.104;11.782;2023-03-14T01:38:05;93975.58;;;10.19;55.11
48156;BME280;35568;48.104;11.782;2023-03-14T01:40:32;93972.55;;;10.21;55.38
48156;BME280;35568;48.104;11.782;2023-03-14T01:43:13;93968.95;;;10.41;55.52
48156;BME280;35568;48.104;11.782;2023-03-14T01:46:46;93968.01;;;10.13;55.93
48156;BME280;35568;48.104;11.782;2023-03-14T01:49:19;93964.43;;;9.98;56.22
48156;BME280;35568;48.104;11.782;2023-03-14T01:51:52;93960.01;;;10.27;56.44
48156;BME280;35568;48.104;11.782;2023-03-14T01:54:24;93958.59;;;10.07;56.37
48156;BME280;35568;48.104;11.782;2023-03-14T01:56:56;93955.61;;;9.92;56.46
48156;BME280;35568;48.104;11.782;2023-03-14T01:59:24;93954.88;;;10.42;56.86
48156;BME280;35568;48.104;11.782;2023-03-14T02:01:54;93956.29;;;10.06;57.14
48156;BME280;35568;48.104;11.782;2023-03-14T02:04:23;93956.12;;;10.14;57.09
48156;BME280;35568;48.104;11.782;2023-03-14T02:06:54;93957.42;;;10.01;57.42
48156;BME280;35568;48.104;11.782;2023-03-14T02:09:23;93960.94;;;10.10;57.47
48156;BME280;35568;48.104;11.782;2023-03-14T02:11:51;93969.77;;;9.88;57.97
48156;BME280;35568;48.104;11.782;2023-03-14T02:14:28;93979.46;;;9.91;58.05
48156;BME280;35568;48.104;11.782;2023-03-14T02:16:56;93986.61;;;9.83;58.33
48156;BME280;35568;48.104;11.782;2023-03-14T02:19:35;93999.63;;;9.60;58.64
48156;BME280;35568;48.104;11.782;2023-03-14T02:22:09;93994.49;;;9.45;58.92
48156;BME280;35568;48.104;11.782;2023-03-14T02:24:43;93983.51;;;9.51;59.27
48156;BME280;35568;48.104;11.782;2023-03-14T02:27:14;93980.72;;;9.42;58.94
48156;BME280;35568;48.104;11.782;2023-03-14T02:29:47;93979.60;;;9.31;58.76
48156;BME280;35568;48.104;11.782;2023-03-14T02:32:17;93980.98;;;9.35;59.03
48156;BME280;35568;48.104;11.782;2023-03-14T02:34:49;93981.65;;;9.26;58.76
48156;BME280;35568;48.104;11.782;2023-03-14T02:37:19;93967.89;;;9.20;58.85
48156;BME280;35568;48.104;11.782;2023-03-14T02:39:46;93962.09;;;9.12;59.09
48156;BME280;35568;48.104;11.782;2023-03-14T02:42:13;93954.14;;;8.47;59.87
48156;BME280;35568;48.104;11.782;2023-03-14T02:44:51;93944.46;;;8.56;59.89
48156;BME280;35568;48.104;11.782;2023-03-14T02:47:21;93924.99;;;8.55;59.65
48156;BME280;35568;48.104;11.782;2023-03-14T02:49:51;93912.22;;;8.41;59.22
48156;BME280;35568;48.104;11.782;2023-03-14T02:52:19;93902.57;;;8.36;59.35
48156;BME280;35568;48.104;11.782;2023-03-14T02:54:46;93889.96;;;8.49;58.92
48156;BME280;35568;48.104;11.782;2023-03-14T02:57:13;93876.93;;;8.44;58.88
48156;BME280;35568;48.104;11.782;2023-03-14T02:59:40;93866.51;;;8.44;58.70
48156;BME280;35568;48.104;11.782;2023-03-14T03:02:07;93865.08;;;8.36;59.13
48156;BME280;35568;48.104;11.782;2023-03-14T03:04:34;93859.82;;;8.52;58.89
48156;BME280;35568;48.104;11.782;2023-03-14T03:07:00;93864.58;;;8.25;58.97
48156;BME280;35568;48.104;11.782;2023-03-14T03:09:27;93851.75;;;8.58;58.66
48156;BME280;35568;48.104;11.782;2023-03-14T03:11:54;93852.31;;;8.33;58.45
48156;BME280;35568;48.104;11.782;2023-03-14T03:14:21;93857.91;;;8.79;58.46
48156;BME280;35568;48.104;11.782;2023-03-14T03:16:48;93852.62;;;8.22;58.91
48156;BME280;35568;48.104;11.782;2023-03-14T03:19:15;93841.79;;;8.17;59.16
48156;BME280;35568;48.104;11.782;2023-03-14T03:21:41;93830.06;;;8.23;59.68
48156;BME280;35568;48.104;11.782;2023-03-14T03:24:08;93810.00;;;7.92;60.01
48156;BME280;35568;48.104;11.782;2023-03-14T03:26:35;93811.33;;;7.58;60.62
48156;BME280;35568;48.104;11.782;2023-03-14T03:29:02;93804.32;;;7.91;60.48
48156;BME280;35568;48.104;11.782;2023-03-14T03:31:29;93813.88;;;8.00;60.26
48156;BME280;35568;48.104;11.782;2023-03-14T03:33:57;93806.62;;;7.80;60.11
48156;BME280;35568;48.104;11.782;2023-03-14T03:36:25;93802.36;;;7.94;60.48
48156;BME280;35568;48.104;11.782;2023-03-14T03:38:53;93798.88;;;7.92;59.87
48156;BME280;35568;48.104;11.782;2023-03-14T03:41:19;93809.03;;;8.34;59.64
48156;BME280;35568;48.104;11.782;2023-03-14T03:43:46;93804.44;;;8.16;59.79
48156;BME280;35568;48.104;11.782;2023-03-14T03:46:13;93809.22;;;7.73;59.61
48156;BME280;35568;48.104;11.782;2023-03-14T03:48:40;93822.93;;;7.75;60.04
48156;BME280;35568;48.104;11.782;2023-03-14T03:51:07;93818.22;;;7.91;59.28
48156;BME280;35568;48.104;11.782;2023-03-14T03:53:38;93816.42;;;7.88;59.52
48156;BME280;35568;48.104;11.782;2023-03-14T03:56:06;93816.39;;;7.84;59.54
48156;BME280;35568;48.104;11.782;2023-03-14T03:58:33;93817.66;;;7.63;59.49
48156;BME280;35568;48.104;11.782;2023-03-14T04:02:59;93836.85;;;7.69;58.56
48156;BME280;35568;48.104;11.782;2023-03-14T04:05:26;93836.08;;;7.72;58.08
48156;BME280;35568;48.104;11.782;2023-03-14T04:07:53;93832.13;;;7.73;58.40
48156;BME280;35568;48.104;11.782;2023-03-14T04:10:20;93823.40;;;7.61;58.41
48156;BME280;35568;48.104;11.782;2023-03-14T04:12:47;93826.83;;;7.72;57.85
48156;BME280;35568;48.104;11.782;2023-03-14T04:15:13;93831.66;;;7.53;58.02
48156;BME280;35568;48.104;11.782;2023-03-14T04:17:40;93826.33;;;7.53;58.50
48156;BME280;35568;48.104;11.782;2023-03-14T04:20:08;93818.96;;;7.59;58.22
48156;BME280;35568;48.104;11.782;2023-03-14T04:22:36;93817.06;;;7.36;58.40
48156;BME280;35568;48.104;11.782;2023-03-14T04:25:03;93806.89;;;7.55;58.30
48156;BME280;35568;48.104;11.782;2023-03-14T04:27:30;93795.94;;;7.38;57.75
48156;BME280;35568;48.104;11.782;2023-03-14T04:29:57;93784.55;;;7.31;57.69
48156;BME280;35568;48.104;11.782;2023-03-14T04:32:24;93781.99;;;7.25;57.71
48156;BME280;35568;48.104;11.782;2023-03-14T04:34:51;93776.69;;;7.01;58.26
48156;BME280;35568;48.104;11.782;2023-03-14T04:37:17;93771.13;;;7.05;58.02
48156;BME280;35568;48.104;11.782;2023-03-14T04:39:44;93764.19;;;7.27;58.08
48156;BME280;35568;48.104;11.782;2023-03-14T04:42:11;93769.21;;;7.07;57.91
48156;BME280;35568;48.104;11.782;2023-03-14T04:44:38;93765.38;;;7.03;57.83
48156;BME280;35568;48.104;11.782;2023-03-14T04:47:05;93765.55;;;7.45;57.77
48156;BME280;35568;48.104;11.782;2023-03-14T04:49:32;93778.08;;;7.08;58.09
48156;BME280;35568;48.104;11.782;2023-03-14T04:51:59;93784.98;;;7.45;58.00
48156;BME280;35568;48.104;11.782;2023-03-14T04:54:25;93780.95;;;7.47;57.70
48156;BME280;35568;48.104;11.782;2023-03-14T04:56:52;93779.91;;;7.28;57.66
48156;BME280;35568;48.104;11.782;2023-03-14T04:59:19;93772.30;;;7.59;57.67
48156;BME280;35568;48.104;11.782;2023-03-14T05:01:46;93771.97;;;7.27;58.00
48156;BME280;35568;48.104;11.782;2023-03-14T05:04:13;93770.91;;;7.42;57.75
48156;BME280;35568;48.104;11.782;2023-03-14T05:06:40;93764.58;;;7.45;57.40
48156;BME280;35568;48.104;11.782;2023-03-14T05:09:07;93753.97;;;7.41;57.30
48156;BME280;35568;48.104;11.782;2023-03-14T05:11:33;93750.77;;;7.43;57.41
48156;BME280;35568;48.104;11.782;2023-03-14T05:14:00;93749.82;;;7.27;57.26
48156;BME280;35568;48.104;11.782;2023-03-14T05:16:27;93757.11;;;7.39;57.12
48156;BME280;35568;48.104;11.782;2023-03-14T05:18:54;93752.26;;;7.52;56.89
48156;BME280;35568;48.104;11.782;2023-03-14T05:21:21;93750.00;;;7.81;56.93
48156;BME280;35568;48.104;11.782;2023-03-14T05:23:47;93736.75;;;7.74;56.67
48156;BME280;35568;48.104;11.782;2023-03-14T05:26:14;93739.08;;;7.49;56.66
48156;BME280;35568;48.104;11.782;2023-03-14T05:28:41;93739.16;;;7.80;56.55
48156;BME280;35568;48.104;11.782;2023-03-14T05:31:08;93739.74;;;7.81;56.41
48156;BME280;35568;48.104;11.782;2023-03-14T05:33:36;93741.98;;;7.75;56.15
48156;BME280;35568;48.104;11.782;2023-03-14T05:36:03;93745.31;;;7.59;56.24
48156;BME280;35568;48.104;11.782;2023-03-14T05:38:30;93748.30;;;7.38;56.22
48156;BME280;35568;48.104;11.782;2023-03-14T05:40:57;93753.49;;;7.52;56.32
48156;BME280;35568;48.104;11.782;2023-03-14T05:43:24;93750.33;;;7.58;56.10
48156;BME280;35568;48.104;11.782;2023-03-14T05:45:51;93749.12;;;7.49;56.30
48156;BME280;35568;48.104;11.782;2023-03-14T05:48:18;93748.48;;;7.37;56.56
48156;BME280;35568;48.104;11.782;2023-03-14T05:50:44;93744.55;;;7.42;56.49
48156;BME280;35568;48.104;11.782;2023-03-14T05:53:11;93745.91;;;7.32;56.52
48156;BME280;35568;48.104;11.782;2023-03-14T05:55:38;93739.94;;;7.41;56.57
48156;BME280;35568;48.104;11.782;2023-03-14T05:58:05;93739.08;;;7.59;56.08
48156;BME280;35568;48.104;11.782;2023-03-14T06:00:32;93739.39;;;7.92;55.92
48156;BME280;35568;48.104;11.782;2023-03-14T06:02:59;93738.05;;;7.90;55.64
48156;BME280;35568;48.104;11.782;2023-03-14T06:05:26;93736.02;;;8.05;55.60
48156;BME280;35568;48.104;11.782;2023-03-14T06:07:52;93737.47;;;7.87;55.37
48156;BME280;35568;48.104;11.782;2023-03-14T06:10:19;93735.14;;;8.01;55.21
48156;BME280;35568;48.104;11.782;2023-03-14T06:12:46;93737.33;;;8.19;54.85
48156;BME280;35568;48.104;11.782;2023-03-14T06:15:13;93740.40;;;7.88;55.10
48156;BME280;35568;48.104;11.782;2023-03-14T06:17:40;93735.14;;;8.04;55.00
48156;BME280;35568;48.104;11.782;2023-03-14T06:20:08;93734.37;;;7.85;55.01
48156;BME280;35568;48.104;11.782;2023-03-14T06:22:35;93737.25;;;8.32;54.81
48156;BME280;35568;48.104;11.782;2023-03-14T06:25:03;93737.03;;;8.28;55.06
48156;BME280;35568;48.104;11.782;2023-03-14T06:27:30;93737.66;;;8.33;54.95
48156;BME280;35568;48.104;11.782;2023-03-14T06:29:57;93739.30;;;8.20;55.35
48156;BME280;35568;48.104;11.782;2023-03-14T06:32:24;93729.65;;;8.42;55.12
48156;BME280;35568;48.104;11.782;2023-03-14T06:34:51;93729.18;;;8.01;55.34
48156;BME280;35568;48.104;11.782;2023-03-14T06:37:18;93720.53;;;8.17;54.86
48156;BME280;35568;48.104;11.782;2023-03-14T06:39:45;93712.25;;;8.49;54.59
48156;BME280;35568;48.104;11.782;2023-03-14T06:42:12;93705.53;;;8.11;54.54
48156;BME280;35568;48.104;11.782;2023-03-14T06:44:39;93702.57;;;8.52;54.27
48156;BME280;35568;48.104;11.782;2023-03-14T06:47:05;93700.24;;;8.56;54.59
48156;BME280;35568;48.104;11.782;2023-03-14T06:49:32;93696.48;;;8.64;54.39
48156;BME280;35568;48.104;11.782;2023-03-14T06:51:59;93703.62;;;8.60;54.52
48156;BME280;35568;48.104;11.782;2023-03-14T06:54:26;93711.20;;;8.53;54.89
48156;BME280;35568;48.104;11.782;2023-03-14T06:56:53;93713.77;;;8.48;54.91
48156;BME280;35568;48.104;11.782;2023-03-14T06:59:20;93718.85;;;8.50;54.37
48156;BME280;35568;48.104;11.782;2023-03-14T07:01:47;93722.13;;;8.97;54.31
48156;BME280;35568;48.104;11.782;2023-03-14T07:04:13;93727.35;;;8.46;54.38
48156;BME280;35568;48.104;11.782;2023-03-14T07:06:40;93735.19;;;8.62;54.44
48156;BME280;35568;48.104;11.782;2023-03-14T07:09:07;93728.93;;;8.40;54.68
48156;BME280;35568;48.104;11.782;2023-03-14T07:11:34;93728.39;;;8.51;54.31
48156;BME280;35568;48.104;11.782;2023-03-14T07:14:01;93726.28;;;8.45;53.97
48156;BME280;35568;48.104;11.782;2023-03-14T07:16:28;93727.61;;;8.80;54.13
48156;BME280;35568;48.104;11.782;2023-03-14T07:18:54;93726.31;;;8.53;53.57
48156;BME280;35568;48.104;11.782;2023-03-14T07:21:21;93724.42;;;8.52;53.75
48156;BME280;35568;48.104;11.782;2023-03-14T07:23:48;93723.49;;;8.76;53.66
48156;BME280;35568;48.104;11.782;2023-03-14T07:26:16;93726.05;;;8.67;53.22
48156;BME280;35568;48.104;11.782;2023-03-14T07:28:43;93729.88;;;8.76;53.50
48156;BME280;35568;48.104;11.782;2023-03-14T07:31:10;93730.22;;;8.86;53.65
48156;BME280;35568;48.104;11.782;2023-03-14T07:33:36;93734.06;;;9.01;53.21
48156;BME280;35568;48.104;11.782;2023-03-14T07:36:04;93730.85;;;8.99;53.64
48156;BME280;35568;48.104;11.782;2023-03-14T07:38:32;93725.17;;;9.00;53.45
48156;BME280;35568;48.104;11.782;2023-03-14T07:40:59;93723.06;;;9.21;53.23
48156;BME280;35568;48.104;11.782;2023-03-14T07:43:26;93727.10;;;9.17;52.93
48156;BME280;35568;48.104;11.782;2023-03-14T07:45:53;93723.96;;;9.36;52.96
48156;BME280;35568;48.104;11.782;2023-03-14T07:48:20;93725.33;;;9.39;53.37
48156;BME280;35568;48.104;11.782;2023-03-14T07:50:48;93721.90;;;9.43;52.65
48156;BME280;35568;48.104;11.782;2023-03-14T07:53:15;93718.80;;;9.09;51.63
48156;BME280;35568;48.104;11.782;2023-03-14T07:55:41;93720.31;;;9.25;51.51
48156;BME280;35568;48.104;11.782;2023-03-14T07:58:08;93714.31;;;9.17;50.61
48156;BME280;35568;48.104;11.782;2023-03-14T08:00:36;93715.22;;;9.17;50.37
48156;BME280;35568;48.104;11.782;2023-03-14T08:03:03;93716.55;;;9.18;49.64
48156;BME280;35568;48.104;11.782;2023-03-14T08:05:31;93712.74;;;9.27;50.08
48156;BME280;35568;48.104;11.782;2023-03-14T08:08:00;93713.03;;;9.60;49.07
48156;BME280;35568;48.104;11.782;2023-03-14T08:10:27;93711.97;;;9.60;48.63
48156;BME280;35568;48.104;11.782;2023-03-14T08:12:55;93713.30;;;9.57;48.66
48156;BME280;35568;48.104;11.782;2023-03-14T08:15:22;93713.38;;;9.75;48.99
48156;BME280;35568;48.104;11.782;2023-03-14T08:17:50;93713.59;;;9.97;49.11
48156;BME280;35568;48.104;11.782;2023-03-14T08:20:17;93719.28;;;9.65;47.92
48156;BME280;35568;48.104;11.782;2023-03-14T08:22:45;93723.10;;;9.69;48.37
48156;BME280;35568;48.104;11.782;2023-03-14T08:25:12;93721.70;;;10.08;47.73
48156;BME280;35568;48.104;11.782;2023-03-14T08:27:39;93724.56;;;9.87;48.01
48156;BME280;35568;48.104;11.782;2023-03-14T08:30:10;93727.61;;;10.04;47.45
48156;BME280;35568;48.104;11.782;2023-03-14T08:32:37;93725.41;;;9.81;47.52
48156;BME280;35568;48.104;11.782;2023-03-14T08:35:06;93730.19;;;9.62;47.47
48156;BME280;35568;48.104;11.782;2023-03-14T08:37:34;93732.66;;;9.83;47.42
48156;BME280;35568;48.104;11.782;2023-03-14T08:40:02;93735.17;;;10.28;47.25
48156;BME280;35568;48.104;11.782;2023-03-14T08:42:29;93740.20;;;10.19;46.93
48156;BME280;35568;48.104;11.782;2023-03-14T08:44:56;93744.43;;;10.37;47.35
48156;BME280;35568;48.104;11.782;2023-03-14T08:47:22;93751.02;;;10.58;47.11
48156;BME280;35568;48.104;11.782;2023-03-14T08:49:49;93756.54;;;10.62;46.15
48156;BME280;35568;48.104;11.782;2023-03-14T08:52:16;93762.11;;;10.84;46.36
48156;BME280;35568;48.104;11.782;2023-03-14T08:54:44;93765.14;;;10.01;46.03
48156;BME280;35568;48.104;11.782;2023-03-14T08:57:12;93765.16;;;10.22;46.66
48156;BME280;35568;48.104;11.782;2023-03-14T08:59:38;93765.32;;;10.15;46.28
48156;BME280;35568;48.104;11.782;2023-03-14T09:02:05;93770.41;;;10.42;46.58
48156;BME280;35568;48.104;11.782;2023-03-14T09:04:32;93769.11;;;10.12;46.42
48156;BME280;35568;48.104;11.782;2023-03-14T09:07:00;93766.84;;;10.36;46.74
48156;BME280;35568;48.104;11.782;2023-03-14T09:09:27;93768.60;;;10.51;46.92
48156;BME280;35568;48.104;11.782;2023-03-14T09:11:54;93772.46;;;10.45;47.14
48156;BME280;35568;48.104;11.782;2023-03-14T09:14:21;93773.36;;;10.80;47.25
48156;BME280;35568;48.104;11.782;2023-03-14T09:16:48;93772.60;;;10.46;47.28
48156;BME280;35568;48.104;11.782;2023-03-14T09:19:15;93769.03;;;10.52;47.02
48156;BME280;35568;48.104;11.782;2023-03-14T09:21:42;93769.43;;;10.14;46.47
48156;BME280;35568;48.104;11.782;2023-03-14T09:24:09;93769.04;;;10.51;46.50
48156;BME280;35568;48.104;11.782;2023-03-14T09:26:35;93771.02;;;10.72;46.47
48156;BME280;35568;48.104;11.782;2023-03-14T09:29:02;93770.03;;;10.71;46.33
48156;BME280;35568;48.104;11.782;2023-03-14T09:31:29;93771.31;;;10.45;46.28
48156;BME280;35568;48.104;11.782;2023-03-14T09:33:56;93770.66;;;10.56;46.25
48156;BME280;35568;48.104;11.782;2023-03-14T09:36:23;93770.10;;;10.69;46.14
48156;BME280;35568;48.104;11.782;2023-03-14T09:38:50;93768.19;;;10.55;45.79
48156;BME280;35568;48.104;11.782;2023-03-14T09:41:21;93767.69;;;10.63;46.17
48156;BME280;35568;48.104;11.782;2023-03-14T09:44:02;93763.29;;;10.60;47.16
48156;BME280;35568;48.104;11.782;2023-03-14T09:46:33;93757.54;;;10.28;47.90
48156;BME280;35568;48.104;11.782;2023-03-14T09:49:09;93749.00;;;10.60;47.78
48156;BME280;35568;48.104;11.782;2023-03-14T09:51:37;93744.07;;;10.69;47.89
48156;BME280;35568;48.104;11.782;2023-03-14T09:54:05;93737.99;;;11.28;47.84
48156;BME280;35568;48.104;11.782;2023-03-14T09:56:40;93735.75;;;11.26;48.07
48156;BME280;35568;48.104;11.782;2023-03-14T09:59:11;93740.52;;;11.03;48.27
48156;BME280;35568;48.104;11.782;2023-03-14T10:01:38;93738.38;;;11.03;48.60
48156;BME280;35568;48.104;11.782;2023-03-14T10:04:12;93734.27;;;11.13;48.25
48156;BME280;35568;48.104;11.782;2023-03-14T10:06:41;93733.83;;;10.97;48.58
48156;BME280;35568;48.104;11.782;2023-03-14T10:09:08;93727.42;;;11.65;48.57
48156;BME280;35568;48.104;11.782;2023-03-14T10:11:39;93724.87;;;11.16;48.72
48156;BME280;35568;48.104;11.782;2023-03-14T10:14:08;93720.96;;;11.33;48.53
48156;BME280;35568;48.104;11.782;2023-03-14T10:16:37;93719.32;;;11.05;48.57
48156;BME280;35568;48.104;11.782;2023-03-14T10:19:10;93723.00;;;11.44;48.23
48156;BME280;35568;48.104;11.782;2023-03-14T10:21:39;93722.61;;;10.97;46.66
48156;BME280;35568;48.104;11.782;2023-03-14T10:24:08;93724.55;;;11.28;46.52
48156;BME280;35568;48.104;11.782;2023-03-14T10:26:36;93727.02;;;11.24;47.08
48156;BME280;35568;48.104;11.782;2023-03-14T10:29:09;93718.77;;;11.33;46.73
48156;BME280;35568;48.104;11.782;2023-03-14T10:31:48;93722.37;;;11.15;46.57
48156;BME280;35568;48.104;11.782;2023-03-14T10:34:20;93722.47;;;11.19;46.40
48156;BME280;35568;48.104;11.782;2023-03-14T10:36:52;93720.81;;;11.88;45.95
48156;BME280;35568;48.104;11.782;2023-03-14T10:39:27;93716.48;;;12.07;45.68
48156;BME280;35568;48.104;11.782;2023-03-14T10:42:03;93720.02;;;12.81;45.80
48156;BME280;35568;48.104;11.782;2023-03-14T10:44:31;93718.21;;;13.35;43.92
48156;BME280;35568;48.104;11.782;2023-03-14T10:47:02;93719.31;;;13.75;42.83
48156;BME280;35568;48.104;11.782;2023-03-14T10:49:31;93718.66;;;13.39;42.35
48156;BME280;35568;48.104;11.782;2023-03-14T10:52:02;93718.14;;;14.43;42.40
48156;BME280;35568;48.104;11.782;2023-03-14T10:54:39;93719.40;;;14.13;42.13
48156;BME280;35568;48.104;11.782;2023-03-14T10:57:06;93722.30;;;14.24;41.96
48156;BME280;35568;48.104;11.782;2023-03-14T10:59:37;93721.98;;;14.71;41.87
48156;BME280;35568;48.104;11.782;2023-03-14T11:02:18;93729.35;;;14.74;41.70
48156;BME280;35568;48.104;11.782;2023-03-14T11:04:57;93728.21;;;14.21;40.79
48156;BME280;35568;48.104;11.782;2023-03-14T11:07:31;93721.38;;;14.52;39.60
48156;BME280;35568;48.104;11.782;2023-03-14T11:10:04;93721.45;;;14.31;38.64
48156;BME280;35568;48.104;11.782;2023-03-14T11:12:41;93720.30;;;14.18;40.03
48156;BME280;35568;48.104;11.782;2023-03-14T11:15:18;93723.76;;;13.98;40.55
48156;BME280;35568;48.104;11.782;2023-03-14T11:17:57;93719.95;;;13.41;41.26
48156;BME280;35568;48.104;11.782;2023-03-14T11:20:34;93726.69;;;13.12;40.78
48156;BME280;35568;48.104;11.782;2023-03-14T11:23:11;93721.79;;;12.97;40.99
48156;BME280;35568;48.104;11.782;2023-03-14T11:25:45;93721.10;;;12.63;40.62
48156;BME280;35568;48.104;11.782;2023-03-14T11:28:18;93716.13;;;12.70;40.86
48156;BME280;35568;48.104;11.782;2023-03-14T11:30:51;93717.40;;;12.94;41.31
48156;BME280;35568;48.104;11.782;2023-03-14T11:33:22;93720.04;;;12.42;41.14
48156;BME280;35568;48.104;11.782;2023-03-14T11:35:58;93711.84;;;13.53;40.33
48156;BME280;35568;48.104;11.782;2023-03-14T11:38:30;93713.59;;;13.78;40.62
48156;BME280;35568;48.104;11.782;2023-03-14T11:41:00;93713.93;;;13.20;40.63
48156;BME280;35568;48.104;11.782;2023-03-14T11:43:30;93707.38;;;13.48;40.07
48156;BME280;35568;48.104;11.782;2023-03-14T11:46:05;93701.04;;;13.85;39.42
48156;BME280;35568;48.104;11.782;2023-03-14T11:48:39;93702.74;;;14.17;38.54
48156;BME280;35568;48.104;11.782;2023-03-14T11:51:13;93693.01;;;13.80;38.58
48156;BME280;35568;48.104;11.782;2023-03-14T11:53:48;93685.85;;;13.10;38.52
48156;BME280;35568;48.104;11.782;2023-03-14T11:56:24;93686.37;;;13.35;37.81
48156;BME280;35568;48.104;11.782;2023-03-14T11:58:58;93680.03;;;12.65;37.64
48156;BME280;35568;48.104;11.782;2023-03-14T12:01:33;93676.82;;;12.92;37.88
48156;BME280;35568;48.104;11.782;2023-03-14T12:04:07;93682.89;;;12.82;37.00
48156;BME280;35568;48.104;11.782;2023-03-14T12:06:43;93677.44;;;12.82;37.52
48156;BME280;35568;48.104;11.782;2023-03-14T12:09:15;93681.80;;;12.67;37.12
48156;BME280;35568;48.104;11.782;2023-03-14T12:11:46;93672.16;;;12.43;37.32
48156;BME280;35568;48.104;11.782;2023-03-14T12:14:20;93676.26;;;13.22;36.70
48156;BME280;35568;48.104;11.782;2023-03-14T12:16:52;93675.12;;;12.94;37.62
48156;BME280;35568;48.104;11.782;2023-03-14T12:19:31;93672.55;;;13.16;36.08
48156;BME280;35568;48.104;11.782;2023-03-14T12:22:07;93674.13;;;13.01;36.79
48156;BME280;35568;48.104;11.782;2023-03-14T12:24:36;93666.54;;;13.38;36.25
48156;BME280;35568;48.104;11.782;2023-03-14T12:27:06;93678.35;;;13.96;36.12
48156;BME280;35568;48.104;11.782;2023-03-14T12:29:57;93668.84;;;13.99;35.92
48156;BME280;35568;48.104;11.782;2023-03-14T12:32:24;93674.95;;;13.57;35.64
48156;BME280;35568;48.104;11.782;2023-03-14T12:34:51;93663.68;;;14.02;35.31
48156;BME280;35568;48.104;11.782;2023-03-14T12:37:26;93668.18;;;14.27;35.66
48156;BME280;35568;48.104;11.782;2023-03-14T12:40:06;93676.88;;;13.96;35.46
48156;BME280;35568;48.104;11.782;2023-03-14T12:42:44;93665.26;;;13.06;36.67
48156;BME280;35568;48.104;11.782;2023-03-14T12:45:24;93665.55;;;12.94;37.20
48156;BME280;35568;48.104;11.782;2023-03-14T12:47:54;93665.74;;;13.06;37.31
48156;BME280;35568;48.104;11.782;2023-03-14T12:50:27;93669.05;;;13.00;37.70
48156;BME280;35568;48.104;11.782;2023-03-14T12:53:53;93671.29;;;12.72;37.13
48156;BME280;35568;48.104;11.782;2023-03-14T12:56:37;93675.97;;;12.21;37.13
48156;BME280;35568;48.104;11.782;2023-03-14T12:59:30;93676.48;;;12.75;37.32
48156;BME280;35568;48.104;11.782;2023-03-14T13:02:01;93681.54;;;12.66;36.74
48156;BME280;35568;48.104;11.782;2023-03-14T13:04:34;93675.07;;;12.99;36.83
48156;BME280;35568;48.104;11.782;2023-03-14T13:07:02;93678.20;;;13.24;36.92
48156;BME280;35568;48.104;11.782;2023-03-14T13:09:55;93679.86;;;13.60;36.78